サンパウロ/グアルーリョス の空港の天気 - METARとTAF

グアルーリョス国際空港 (サンパウロ) ( SBGR / GRU ) - ブラジル サンパウロ州サンパウロ市
飛行場実況気象(Metar)
観測時間03/29 10:00 -03 (03/29 13:00 UTC)
風向・風速南南東 2m/s
視程10km以上
天気現象
全天の8割程度の雲 雲底高度 910m
気温20℃
湿度73%
気圧1021hPa
METARSBGR 291300Z 16004KT 9999 BKN030 20/15 Q1021
過去の天気等 Google飛行場航空写真 Wunderground天気予報

過去48時間のMETAR

飛行場予報(TAF)
発表時間: 3/29 06:55 -03 (3/29 09:55 UTC)
予報対象時間: 29日9時 -03 ~ 30日15時 -03
風向・風速東 3m/s
視程10km以上
少しの雲 雲底高度 610m
29日11時 -03 ~ 29日13時 -03 に徐々に
風向・風速東南東 3m/s
全天の4割程度の雲 雲底高度 1,070m
29日15時 -03 ~ 29日17時 -03 に徐々に
風向・風速南東 4m/s
29日17時 -03 ~ 29日19時 -03 に徐々に
全天の4割程度の雲 雲底高度 610m
29日19時 -03 から 確率 30% で
全天の8割程度の雲 雲底高度 610m
29日22時 -03 ~ 29日24時 -03 に徐々に
風向・風速東 3m/s
30日0時 -03 ~ 30日2時 -03 に徐々に
少しの雲 雲底高度 460m
30日6時 -03 から 確率 30% で
全天の8割程度の雲 雲底高度 340m
30日10時 -03 ~ 30日12時 -03 に徐々に
少しの雲 雲底高度 610m
30日12時 -03 ~ 30日14時 -03 に徐々に
風向・風速東南東 3m/s
全天の4割程度の雲 雲底高度 1,070m
TAF SBGR 290955Z 2912/3018 09005KT 9999 FEW020 TX24/2917Z TN15/3009Z
BECMG 2914/2916 11006KT SCT035
BECMG 2918/2920 14008KT
BECMG 2920/2922 SCT020
PROB30 2922/3001 BKN020
BECMG 3001/3003 09005KT
BECMG 3003/3005 FEW015
PROB30 3009/3011 BKN011
BECMG 3013/3015 FEW020
BECMG 3015/3017 11005KT SCT035 RMK PGM